Time;durP1;ratioP1;P1;durP2;ratioP2;P2;SDS_P1;SDS_P2;PMS_P1;PMS_P2;Temp;Humidity;BMP_temperature;BMP_pressure;BME280_temperature;BME280_humidity;BME280_pressure;Samples;Min_cycle;Max_cycle;Signal;HPM_P1;HPM_P2
2022/06/09 00:00:49;;;;;;;6.20;1.52;;;;;;;14.37;60.61;99575.56;5102647;27;20062;-49
2022/06/09 00:03:20;;;;;;;5.72;1.15;;;;;;;14.33;61.09;99580.03;5115240;27;20125;-49
2022/06/09 00:05:47;;;;;;;6.15;1.35;;;;;;;14.29;61.24;99578.41;5112671;27;20047;-51
2022/06/09 00:08:15;;;;;;;6.35;1.13;;;;;;;14.27;61.14;99585.38;5110692;27;20552;-52
2022/06/09 00:10:49;;;;;;;3.53;1.33;;;;;;;14.22;61.16;99587.25;5111206;27;20043;-47
2022/06/09 00:13:16;;;;;;;5.45;1.42;;;;;;;14.20;61.48;99589.03;5115744;27;20042;-47
2022/06/09 00:15:43;;;;;;;9.07;1.30;;;;;;;14.16;61.19;99587.41;5101752;27;20062;-46
2022/06/09 00:18:10;;;;;;;6.68;1.33;;;;;;;14.13;62.16;99594.41;5116508;27;20448;-53
2022/06/09 00:20:37;;;;;;;4.85;1.65;;;;;;;14.11;62.43;99593.59;5117429;27;20602;-44
2022/06/09 00:23:06;;;;;;;5.13;1.75;;;;;;;14.09;62.50;99608.38;5110318;27;20043;-45
2022/06/09 00:25:51;;;;;;;6.68;1.80;;;;;;;14.06;62.52;99608.47;5116168;27;20054;-51
2022/06/09 00:28:36;;;;;;;6.90;1.63;;;;;;;14.03;62.11;99612.88;5112732;27;20062;-48
2022/06/09 00:31:04;;;;;;;5.25;1.85;;;;;;;13.99;62.95;99607.75;5112004;27;20098;-53
2022/06/09 00:33:33;;;;;;;6.45;1.45;;;;;;;13.98;62.86;99612.97;5113309;27;20048;-43
2022/06/09 00:36:02;;;;;;;5.13;1.38;;;;;;;13.95;62.75;99615.69;5116617;27;20493;-45
2022/06/09 00:38:30;;;;;;;3.33;1.60;;;;;;;13.91;63.02;99614.88;5111043;27;20092;-51
2022/06/09 00:40:58;;;;;;;5.90;1.50;;;;;;;13.91;63.27;99619.25;5112530;27;20415;-45
2022/06/09 00:43:26;;;;;;;5.43;1.55;;;;;;;13.86;62.90;99614.16;5085878;27;20047;-46
2022/06/09 00:46:33;;;;;;;2.72;1.23;;;;;;;13.73;63.45;99616.16;5117541;27;20039;-49
2022/06/09 00:51:42;;;;;;;4.97;2.85;;;;;;;13.74;62.50;99617.88;5036175;28;20399;-49
2022/06/09 00:59:44;;;;;;;3.33;1.25;;;;;;;13.67;63.03;99624.97;5050496;28;20384;-41
2022/06/09 01:02:16;;;;;;;3.15;1.38;;;;;;;13.65;63.85;99629.38;5019421;28;20491;-49
2022/06/09 01:04:44;;;;;;;6.18;1.77;;;;;;;13.62;63.76;99635.47;5009774;28;20505;-44
2022/06/09 01:07:23;;;;;;;3.60;1.20;;;;;;;13.60;63.26;99632.06;5008629;28;20069;-43
2022/06/09 01:09:50;;;;;;;4.45;1.85;;;;;;;13.57;63.86;99628.66;5014797;28;20045;-54
2022/06/09 01:12:24;;;;;;;5.60;1.95;;;;;;;13.52;63.80;99613.16;5006468;28;20062;-48
2022/06/09 01:14:53;;;;;;;5.57;1.75;;;;;;;13.49;64.01;99628.84;5006327;28;20053;-46
2022/06/09 01:17:29;;;;;;;4.45;1.50;;;;;;;13.45;64.54;99629.75;5006691;28;20192;-44
2022/06/09 01:33:19;;;;;;;5.82;1.27;;;;;;;13.24;64.11;99645.78;5058670;28;20400;-45
2022/06/09 01:35:56;;;;;;;5.30;1.40;;;;;;;13.24;64.17;99640.56;5046807;28;20080;-43
2022/06/09 01:38:22;;;;;;;11.95;2.08;;;;;;;13.23;64.82;99649.28;5066133;28;20040;-45
2022/06/09 01:40:49;;;;;;;4.18;1.45;;;;;;;13.20;63.97;99651.06;5065761;28;20057;-50
2022/06/09 01:43:16;;;;;;;7.88;1.77;;;;;;;13.19;65.35;99657.16;5068818;28;20048;-46
2022/06/09 01:46:16;;;;;;;5.63;1.80;;;;;;;13.05;65.34;99655.69;5066233;28;20044;-44
2022/06/09 01:48:43;;;;;;;8.40;1.92;;;;;;;13.10;65.30;99659.06;5079405;28;20098;-50
2022/06/09 01:51:13;;;;;;;6.65;2.25;;;;;;;13.08;65.24;99655.63;5070281;28;20048;-41
2022/06/09 01:53:48;;;;;;;7.00;1.60;;;;;;;13.06;64.98;99653.94;5071047;28;20640;-44
2022/06/09 01:56:21;;;;;;;12.02;2.80;;;;;;;13.06;65.35;99652.22;5062875;28;20059;-45
2022/06/09 01:58:54;;;;;;;7.90;2.20;;;;;;;13.03;65.51;99656.63;5066863;28;20064;-47
2022/06/09 02:01:26;;;;;;;7.57;2.13;;;;;;;13.01;64.87;99654.06;5067749;28;20043;-44
2022/06/09 02:03:58;;;;;;;5.18;1.48;;;;;;;12.99;66.04;99658.41;5075140;28;20071;-50
2022/06/09 02:06:27;;;;;;;12.25;1.90;;;;;;;12.97;66.12;99658.44;5064287;28;20052;-45
2022/06/09 02:08:54;;;;;;;10.50;1.80;;;;;;;12.96;65.89;99655.84;5069671;28;20045;-43
2022/06/09 02:11:21;;;;;;;9.75;2.35;;;;;;;12.95;66.05;99665.41;5073821;27;20422;-51
2022/06/09 02:13:50;;;;;;;7.45;1.80;;;;;;;12.95;64.92;99664.56;5066552;28;20045;-47
2022/06/09 02:16:21;;;;;;;11.60;2.15;;;;;;;12.92;65.55;99670.66;5064543;28;20044;-44
2022/06/09 02:18:52;;;;;;;6.43;2.47;;;;;;;12.90;65.27;99672.44;5067996;28;20477;-48
2022/06/09 02:24:02;;;;;;;6.95;3.20;;;;;;;12.87;66.55;99676.84;5038996;28;20982;-51
2022/06/09 02:26:30;;;;;;;7.03;1.58;;;;;;;12.82;66.38;99680.38;5002673;28;20539;-52
2022/06/09 02:28:57;;;;;;;13.73;3.22;;;;;;;12.79;66.73;99675.22;5004034;28;20117;-51
2022/06/09 02:31:24;;;;;;;8.82;2.75;;;;;;;12.79;66.26;99685.63;5003529;28;20046;-47
2022/06/09 02:33:52;;;;;;;13.32;3.78;;;;;;;12.77;66.83;99692.56;5001925;28;20049;-43
2022/06/09 02:36:18;;;;;;;6.55;2.70;;;;;;;12.77;66.41;99683.94;5000943;28;20046;-42
2022/06/09 02:38:45;;;;;;;8.70;3.45;;;;;;;12.74;66.85;99682.25;5000624;28;20461;-44
2022/06/09 02:41:12;;;;;;;10.35;3.13;;;;;;;12.74;66.48;99692.66;5000114;28;20104;-47
2022/06/09 02:43:41;;;;;;;9.35;2.97;;;;;;;12.71;66.77;99687.50;5000595;28;20133;-50
2022/06/09 02:46:08;;;;;;;11.13;2.83;;;;;;;12.69;67.21;99699.66;5001370;28;20050;-49
2022/06/09 02:48:36;;;;;;;6.65;2.90;;;;;;;12.66;66.82;99704.94;5005160;28;20042;-44
2022/06/09 02:53:56;;;;;;;8.05;1.90;;;;;;;12.58;67.77;99708.50;5026586;28;22334;-42
2022/06/09 02:56:23;;;;;;;6.10;1.42;;;;;;;12.58;67.32;99715.44;5020705;28;20042;-49
2022/06/09 02:58:50;;;;;;;10.80;2.28;;;;;;;12.57;66.99;99719.75;5020516;28;20099;-49
2022/06/09 03:01:17;;;;;;;11.40;2.10;;;;;;;12.53;67.61;99720.69;5003401;28;20050;-47
2022/06/09 03:03:45;;;;;;;8.25;1.83;;;;;;;12.52;67.44;99718.13;5018487;28;20441;-49
2022/06/09 03:06:12;;;;;;;9.20;1.60;;;;;;;12.48;66.70;99719.91;5022254;28;20049;-47
2022/06/09 03:08:38;;;;;;;10.40;2.00;;;;;;;12.47;66.96;99718.22;5022215;28;20046;-42
2022/06/09 03:11:06;;;;;;;8.05;1.80;;;;;;;12.45;66.39;99713.03;5018801;28;20104;-48
2022/06/09 03:13:33;;;;;;;8.75;1.75;;;;;;;12.44;66.49;99726.03;5021996;28;20052;-43
2022/06/09 03:15:59;;;;;;;7.97;1.73;;;;;;;12.45;66.67;99722.56;5020088;28;20100;-42
2022/06/09 03:18:26;;;;;;;8.80;2.05;;;;;;;12.43;67.78;99724.34;5018734;28;20111;-47
2022/06/09 03:20:52;;;;;;;5.57;1.60;;;;;;;12.41;66.48;99726.97;5021351;28;20057;-42
2022/06/09 03:23:19;;;;;;;5.82;1.98;;;;;;;12.40;66.34;99724.38;5020236;28;20045;-47
2022/06/09 03:25:46;;;;;;;10.93;2.00;;;;;;;12.38;67.24;99731.31;5016440;28;20057;-44
2022/06/09 03:28:13;;;;;;;6.90;1.80;;;;;;;12.36;67.88;99733.09;5019349;28;20103;-43
2022/06/09 03:30:39;;;;;;;7.30;1.58;;;;;;;12.34;67.04;99735.72;5017621;28;20463;-49
2022/06/09 03:33:06;;;;;;;9.00;1.30;;;;;;;12.33;67.40;99723.63;5018290;28;20046;-44
2022/06/09 03:35:33;;;;;;;6.25;2.10;;;;;;;12.32;66.20;99727.94;5017706;28;20053;-44
2022/06/09 03:38:00;;;;;;;10.38;1.80;;;;;;;12.29;67.83;99728.00;5020600;28;20604;-47
2022/06/09 03:40:28;;;;;;;6.53;2.05;;;;;;;12.29;67.13;99733.19;5020405;28;20057;-47
2022/06/09 03:43:12;;;;;;;5.85;1.55;;;;;;;12.25;66.52;99741.03;5019945;28;20177;-45
2022/06/09 03:45:39;;;;;;;7.45;1.70;;;;;;;12.23;67.65;99746.28;5021609;28;20057;-43
2022/06/09 03:48:06;;;;;;;10.23;2.20;;;;;;;12.23;67.00;99742.81;5017105;28;20096;-45
2022/06/09 03:50:34;;;;;;;7.38;2.35;;;;;;;12.21;68.03;99750.63;5016441;28;20056;-42
2022/06/09 03:53:01;;;;;;;8.80;1.63;;;;;;;12.20;67.46;99751.50;5013289;28;20152;-48
2022/06/09 03:55:28;;;;;;;9.43;1.83;;;;;;;12.19;66.56;99762.75;5014999;28;20065;-45
2022/06/09 03:57:55;;;;;;;7.88;2.03;;;;;;;12.17;67.63;99764.53;5021232;28;20057;-41
2022/06/09 04:00:27;;;;;;;5.63;2.15;;;;;;;12.16;67.34;99768.00;5013809;28;20050;-44
2022/06/09 04:02:54;;;;;;;6.03;1.45;;;;;;;12.14;67.13;99759.38;5017388;28;20053;-42
2022/06/09 04:05:21;;;;;;;8.32;1.85;;;;;;;12.13;67.86;99762.84;5005461;28;20049;-40
2022/06/09 04:07:48;;;;;;;11.52;2.40;;;;;;;12.12;68.08;99761.16;5007899;28;20088;-41
2022/06/09 04:10:18;;;;;;;7.90;2.10;;;;;;;12.12;67.25;99761.16;5003398;28;20521;-50
2022/06/09 04:12:45;;;;;;;4.65;1.80;;;;;;;12.11;66.97;99772.38;5000959;28;20049;-40
2022/06/09 04:15:14;;;;;;;10.18;1.63;;;;;;;12.12;68.42;99771.53;5006045;28;20371;-42
2022/06/09 04:17:42;;;;;;;6.85;1.42;;;;;;;12.12;67.34;99772.38;5006698;28;20042;-47
2022/06/09 04:20:10;;;;;;;8.75;1.83;;;;;;;12.14;67.57;99761.97;5004510;28;20050;-41
2022/06/09 04:22:36;;;;;;;7.80;1.75;;;;;;;12.15;67.46;99761.06;5006606;28;20457;-45
2022/06/09 04:25:04;;;;;;;8.50;2.40;;;;;;;12.14;68.61;99770.63;5000680;28;20046;-45
2022/06/09 04:27:31;;;;;;;13.45;2.13;;;;;;;12.17;67.68;99769.72;5004951;28;20053;-44
2022/06/09 04:29:58;;;;;;;8.65;1.52;;;;;;;12.20;68.50;99770.53;5003119;28;20364;-43
2022/06/09 04:32:25;;;;;;;6.95;1.83;;;;;;;12.20;67.52;99780.06;5003902;28;20065;-47
2022/06/09 04:34:52;;;;;;;6.00;2.00;;;;;;;12.23;67.93;99790.41;5004981;28;20050;-42
2022/06/09 04:37:19;;;;;;;10.68;1.73;;;;;;;12.25;68.65;99780.84;5002004;28;20049;-46
2022/06/09 04:39:45;;;;;;;10.18;2.25;;;;;;;12.28;68.62;99777.34;5005618;28;20089;-48
2022/06/09 04:42:12;;;;;;;6.50;2.25;;;;;;;12.31;67.41;99791.16;5006686;28;20054;-41
2022/06/09 04:44:39;;;;;;;6.95;2.67;;;;;;;12.34;68.67;99795.44;5004613;28;20046;-42
2022/06/09 04:47:05;;;;;;;7.95;2.17;;;;;;;12.39;67.34;99795.41;5000655;28;20108;-43
2022/06/09 04:49:32;;;;;;;4.47;1.65;;;;;;;12.43;68.14;99797.06;5004336;28;20073;-43
2022/06/09 04:51:58;;;;;;;9.73;1.73;;;;;;;12.47;68.15;99798.72;5001980;28;20050;-42
2022/06/09 04:54:25;;;;;;;5.00;2.05;;;;;;;12.52;68.26;99804.72;5004415;28;20438;-46
2022/06/09 04:56:52;;;;;;;8.32;2.28;;;;;;;12.61;68.90;99806.31;5007312;28;20073;-47
2022/06/09 04:59:18;;;;;;;8.77;1.90;;;;;;;12.67;68.33;99805.38;5002539;28;20054;-45
2022/06/09 05:01:46;;;;;;;6.15;2.05;;;;;;;12.74;67.47;99812.19;5002045;28;20108;-42
2022/06/09 05:04:13;;;;;;;10.15;2.20;;;;;;;12.84;67.76;99820.69;5004470;28;20042;-48
2022/06/09 05:06:40;;;;;;;5.50;2.03;;;;;;;12.95;68.01;99825.72;5004688;28;20413;-43
2022/06/09 05:09:06;;;;;;;9.82;1.70;;;;;;;13.03;68.17;99818.66;4998073;28;20053;-43
2022/06/09 05:11:33;;;;;;;6.88;1.58;;;;;;;13.14;68.09;99822.81;5006157;28;20052;-48
2022/06/09 05:14:00;;;;;;;9.73;1.60;;;;;;;13.25;67.94;99820.91;5002612;28;20079;-40
2022/06/09 05:16:26;;;;;;;8.90;1.73;;;;;;;13.35;68.38;99824.19;5003818;28;20173;-45
2022/06/09 05:18:53;;;;;;;11.50;1.90;;;;;;;13.47;68.68;99838.69;5005385;28;20060;-48
2022/06/09 05:21:20;;;;;;;11.65;1.63;;;;;;;13.60;67.97;99835.03;5006829;28;20677;-42
2022/06/09 05:23:46;;;;;;;6.47;1.83;;;;;;;13.72;67.82;99838.28;5005204;28;20038;-42
2022/06/09 05:26:14;;;;;;;8.82;1.30;;;;;;;13.85;68.19;99842.34;5004748;28;20045;-48
2022/06/09 05:28:41;;;;;;;13.15;1.90;;;;;;;13.98;67.81;99845.56;5002055;28;20061;-46
2022/06/09 05:31:08;;;;;;;12.13;2.28;;;;;;;14.12;67.65;99860.09;5002432;28;20103;-42
2022/06/09 05:33:34;;;;;;;6.80;1.50;;;;;;;14.25;67.48;99853.72;5006627;28;20101;-47
2022/06/09 05:36:01;;;;;;;5.05;1.80;;;;;;;14.39;67.40;99865.59;5002728;28;20516;-46
2022/06/09 05:46:49;;;;;;;12.93;1.85;;;;;;;15.01;66.80;99873.78;4990493;28;20057;-45
2022/06/09 05:49:16;;;;;;;7.85;1.83;;;;;;;15.15;66.32;99879.53;5007054;28;20049;-45
2022/06/09 05:51:43;;;;;;;8.38;1.42;;;;;;;15.29;66.36;99883.53;5006274;28;20100;-44
2022/06/09 05:54:10;;;;;;;9.45;1.50;;;;;;;15.41;66.12;99878.00;5001453;28;20096;-48
2022/06/09 05:56:37;;;;;;;8.82;1.35;;;;;;;15.58;66.00;99889.78;5007921;28;20506;-43
2022/06/09 05:59:04;;;;;;;5.15;1.05;;;;;;;15.75;65.81;99891.09;5002444;28;20389;-41
2022/06/09 06:01:31;;;;;;;9.75;1.50;;;;;;;15.92;65.61;99894.13;5001616;28;20045;-47
2022/06/09 06:03:58;;;;;;;3.90;1.45;;;;;;;16.09;65.14;99894.56;5003546;28;20515;-50
2022/06/09 06:06:42;;;;;;;7.40;1.60;;;;;;;16.27;64.93;99904.50;5006830;28;20172;-48
2022/06/09 06:09:14;;;;;;;9.35;1.67;;;;;;;16.47;65.17;99904.78;5002819;28;20050;-43
2022/06/09 06:11:42;;;;;;;8.35;1.70;;;;;;;16.62;64.49;99904.34;5021406;28;20058;-47
2022/06/09 06:14:09;;;;;;;5.40;1.20;;;;;;;16.79;63.70;99905.59;5001474;28;20050;-52
2022/06/09 06:16:37;;;;;;;9.80;1.50;;;;;;;16.94;64.25;99905.13;5007538;28;20111;-52
2022/06/09 06:19:06;;;;;;;4.72;0.90;;;;;;;17.12;63.78;99892.38;5003991;28;20053;-42
2022/06/09 06:21:34;;;;;;;5.38;1.45;;;;;;;17.31;64.07;99902.22;5004302;28;20054;-45
2022/06/09 06:24:01;;;;;;;7.03;1.70;;;;;;;17.49;63.11;99906.00;4998247;28;20038;-44
2022/06/09 06:26:28;;;;;;;4.20;1.40;;;;;;;17.66;62.84;99902.78;4983310;28;20050;-43
2022/06/09 06:28:55;;;;;;;8.52;1.80;;;;;;;17.85;62.44;99903.03;4984210;28;20407;-46
2022/06/09 06:31:22;;;;;;;6.10;0.98;;;;;;;18.02;61.77;99909.41;4994918;28;20111;-44
2022/06/09 06:33:48;;;;;;;7.38;1.38;;;;;;;18.23;61.56;99907.81;5002682;28;20049;-46
2022/06/09 06:36:15;;;;;;;7.50;1.60;;;;;;;18.46;61.24;99918.34;5003439;28;20144;-47
2022/06/09 06:38:42;;;;;;;8.60;1.13;;;;;;;18.67;61.09;99916.66;4997955;28;20050;-54
2022/06/09 06:41:11;;;;;;;6.13;1.20;;;;;;;18.88;60.65;99919.38;5005088;28;20200;-47
2022/06/09 06:43:43;;;;;;;6.82;1.60;;;;;;;19.11;61.26;99922.84;5004305;28;20073;-48
2022/06/09 06:46:09;;;;;;;7.53;1.77;;;;;;;19.34;60.67;99921.06;5004663;28;20132;-47
2022/06/09 06:48:36;;;;;;;6.68;1.40;;;;;;;19.53;59.80;99921.16;5001684;28;20045;-44
2022/06/09 06:51:05;;;;;;;5.30;1.38;;;;;;;19.71;59.19;99930.03;5004564;28;20046;-49
2022/06/09 06:53:33;;;;;;;8.07;1.17;;;;;;;19.95;59.00;99926.38;5000649;28;20054;-48
2022/06/09 06:56:00;;;;;;;5.15;1.80;;;;;;;20.16;58.84;99924.63;4998167;28;20050;-49
2022/06/09 06:58:27;;;;;;;5.78;1.30;;;;;;;20.37;57.54;99932.47;4999327;28;20053;-46
2022/06/09 07:00:54;;;;;;;19.98;7.90;;;;;;;20.57;57.53;99928.06;4995611;28;20097;-48
2022/06/09 07:03:21;;;;;;;19.48;9.88;;;;;;;20.77;56.93;99935.88;4998650;28;20085;-51
2022/06/09 07:05:59;;;;;;;4.75;1.83;;;;;;;21.00;56.15;99936.59;5003313;28;20049;-48
2022/06/09 07:08:26;;;;;;;7.53;2.25;;;;;;;21.15;55.47;99939.41;5002052;28;20065;-45
2022/06/09 07:10:53;;;;;;;13.65;7.78;;;;;;;21.34;55.12;99941.13;5001713;28;20065;-51
2022/06/09 07:13:21;;;;;;;6.78;3.38;;;;;;;21.52;55.24;99942.81;4997381;28;20049;-49
2022/06/09 07:15:48;;;;;;;7.85;1.65;;;;;;;21.76;54.53;99953.09;4999535;28;20046;-49
2022/06/09 07:18:15;;;;;;;5.10;0.98;;;;;;;22.00;53.88;99951.91;5002196;28;20096;-47
2022/06/09 07:20:42;;;;;;;6.07;1.10;;;;;;;22.22;53.68;99959.53;4997812;28;20046;-55
2022/06/09 07:23:09;;;;;;;9.30;2.15;;;;;;;22.41;52.00;99958.53;5001792;28;20046;-46
2022/06/09 07:25:36;;;;;;;11.50;4.15;;;;;;;22.56;51.94;99960.38;4998585;28;20085;-53
2022/06/09 07:28:03;;;;;;;20.60;7.32;;;;;;;22.73;51.50;99964.75;5004571;28;20050;-42
2022/06/09 07:30:30;;;;;;;30.67;12.85;;;;;;;22.91;50.77;99966.44;4999418;28;20057;-51
2022/06/09 07:32:57;;;;;;;6.05;1.50;;;;;;;23.04;50.55;99970.13;4998445;28;20053;-47
2022/06/09 07:35:27;;;;;;;6.03;1.08;;;;;;;23.18;50.25;99981.66;5001488;28;20069;-50
2022/06/09 07:37:54;;;;;;;4.25;0.68;;;;;;;23.34;49.54;99979.00;5004237;28;20053;-49
2022/06/09 07:40:21;;;;;;;5.03;0.70;;;;;;;23.41;48.67;99985.69;5004928;28;20053;-46
2022/06/09 07:42:48;;;;;;;4.32;0.80;;;;;;;23.44;48.18;99977.56;5011398;28;20054;-47
2022/06/09 07:45:16;;;;;;;4.80;1.13;;;;;;;23.52;47.73;99979.75;5009494;28;20041;-49
2022/06/09 07:47:43;;;;;;;5.57;1.02;;;;;;;23.61;47.78;99973.91;5011339;28;20129;-50
2022/06/09 07:50:28;;;;;;;3.08;0.77;;;;;;;23.75;47.69;99985.50;5007438;28;20504;-48
2022/06/09 07:52:55;;;;;;;3.20;0.80;;;;;;;23.89;47.33;99982.03;5003962;28;20045;-49
2022/06/09 07:55:39;;;;;;;5.53;1.00;;;;;;;24.01;46.85;99989.22;5006673;28;20060;-49
2022/06/09 07:58:06;;;;;;;15.82;4.07;;;;;;;24.11;46.42;99986.00;5011320;28;20081;-55
2022/06/09 08:00:33;;;;;;;13.65;5.45;;;;;;;24.05;46.38;99981.97;5007587;28;20042;-47
2022/06/09 08:03:03;;;;;;;15.52;4.57;;;;;;;24.01;46.54;99991.00;5007088;28;20056;-48
2022/06/09 08:05:31;;;;;;;5.20;1.65;;;;;;;23.98;46.49;99991.19;5009055;28;20052;-44
2022/06/09 08:07:58;;;;;;;9.23;2.72;;;;;;;23.98;46.29;99997.31;5009136;28;20057;-48
2022/06/09 08:10:27;;;;;;;4.75;1.15;;;;;;;23.85;46.54;99989.28;5004955;28;20042;-48
2022/06/09 08:12:57;;;;;;;7.85;1.95;;;;;;;23.80;46.78;99980.78;5003809;28;20061;-48
2022/06/09 08:15:32;;;;;;;8.60;1.50;;;;;;;23.79;46.35;99996.72;5002497;28;20111;-51
2022/06/09 08:18:17;;;;;;;7.07;1.40;;;;;;;23.77;46.90;99988.88;5005774;28;20679;-57
2022/06/09 08:20:44;;;;;;;7.85;1.42;;;;;;;23.75;46.61;99998.72;5004353;28;20057;-46
2022/06/09 08:23:28;;;;;;;5.47;1.00;;;;;;;23.79;46.48;99996.72;5000539;28;20048;-51
2022/06/09 08:25:58;;;;;;;3.47;0.93;;;;;;;23.87;45.69;99999.75;5006717;28;20049;-50
2022/06/09 08:28:25;;;;;;;4.97;1.30;;;;;;;23.93;46.55;99998.53;5005829;28;20046;-45
2022/06/09 08:30:55;;;;;;;4.93;1.55;;;;;;;24.07;46.66;100000.34;5004838;28;21197;-55
2022/06/09 08:33:23;;;;;;;9.70;2.30;;;;;;;24.22;46.09;99983.56;5005674;28;20056;-50
2022/06/09 08:35:51;;;;;;;8.40;2.47;;;;;;;24.43;46.24;99990.28;5002877;28;20100;-50
2022/06/09 08:38:17;;;;;;;14.27;3.05;;;;;;;24.63;45.49;99989.88;5001080;28;20496;-47
2022/06/09 08:40:59;;;;;;;17.48;4.57;;;;;;;24.77;45.68;99982.88;5004109;28;20054;-48
2022/06/09 08:46:27;;;;;;;5.95;1.40;;;;;;;25.29;44.70;99985.78;5040552;27;20411;-45
2022/06/09 08:48:56;;;;;;;9.55;1.70;;;;;;;25.54;44.04;99997.41;5016240;28;20132;-50
2022/06/09 08:51:39;;;;;;;5.43;1.50;;;;;;;25.61;43.64;99998.75;5019015;28;20056;-44
2022/06/09 08:54:11;;;;;;;;;;;;;;;25.59;44.30;100000.63;5016770;28;20054;-53
2022/06/09 08:56:39;;;;;;;8.20;2.13;;;;;;;25.83;43.76;99997.25;5014976;28;19929;-46
2022/06/09 08:59:13;;;;;;;5.88;2.05;;;;;;;26.08;44.00;99995.59;5015183;28;20068;-49
2022/06/09 09:09:50;;;;;;;7.75;2.85;;;;;;;26.11;42.47;100008.63;5018513;28;20424;-53
2022/06/09 09:23:57;;;;;;;8.45;4.32;;;;;;;26.09;41.18;100007.03;5075596;28;20098;-48
2022/06/09 09:26:45;;;;;;;4.13;2.65;;;;;;;25.99;41.14;100012.13;5072705;28;20044;-48
2022/06/09 09:29:28;;;;;;;6.32;3.97;;;;;;;25.91;40.97;100015.34;5076300;28;20049;-47
2022/06/09 09:32:03;;;;;;;6.35;2.90;;;;;;;25.93;41.81;100019.56;5075973;28;20051;-47
2022/06/09 09:34:35;;;;;;;6.97;3.20;;;;;;;25.98;41.93;100015.75;5061956;28;20053;-50
2022/06/09 09:37:18;;;;;;;6.57;3.22;;;;;;;25.98;41.85;100021.91;5079982;28;20048;-46
2022/06/09 09:39:58;;;;;;;8.23;2.53;;;;;;;25.90;42.28;100027.72;5075362;28;20683;-45
2022/06/09 09:42:29;;;;;;;7.15;2.58;;;;;;;25.74;41.27;100027.91;5078966;27;20995;-50
2022/06/09 09:50:28;;;;;;;8.43;3.50;;;;;;;25.84;40.13;100020.22;5064107;27;20418;-52
2022/06/09 09:53:06;;;;;;;6.38;3.25;;;;;;;25.69;41.64;100021.25;5058542;28;20094;-43
2022/06/09 09:55:49;;;;;;;10.27;3.65;;;;;;;25.75;41.71;100026.13;5055190;28;20057;-45
2022/06/09 10:01:05;;;;;;;5.13;1.90;;;;;;;25.93;42.00;100032.84;5056628;28;20404;-45
2022/06/09 10:09:51;;;;;;;5.47;0.88;;;;;;;25.56;40.86;100034.44;5011648;28;20480;-50
2022/06/09 10:12:28;;;;;;;5.13;1.42;;;;;;;25.27;41.05;100036.22;5016597;28;20081;-50
2022/06/09 10:15:18;;;;;;;4.60;1.00;;;;;;;25.21;41.25;100033.13;5016349;28;20053;-51
2022/06/09 10:18:14;;;;;;;6.05;1.45;;;;;;;25.27;41.60;100036.22;5020313;28;20103;-50
2022/06/09 10:21:14;;;;;;;7.40;1.23;;;;;;;25.42;41.91;100031.75;5017119;28;20047;-51
2022/06/09 10:29:15;;;;;;;8.68;2.35;;;;;;;25.69;41.40;100037.16;5013854;28;20411;-45
2022/06/09 10:32:05;;;;;;;7.50;2.95;;;;;;;25.54;41.13;100042.50;5003760;28;20042;-46
2022/06/09 10:39:55;;;;;;;5.32;1.00;;;;;;;25.48;40.33;100046.41;5054402;27;20386;-48
2022/06/09 11:01:53;;;;;;;6.28;1.30;;;;;;;24.98;41.34;100056.66;5030253;28;20407;-48
2022/06/09 11:04:21;;;;;;;7.55;1.00;;;;;;;25.00;42.28;100052.94;5016825;28;20054;-45
2022/06/09 11:07:27;;;;;;;6.45;1.88;;;;;;;25.15;42.47;100045.84;5017622;28;20049;-43
2022/06/09 11:15:37;;;;;;;6.22;2.28;;;;;;;25.52;38.98;100047.03;5049688;27;20414;-44
2022/06/09 11:24:00;;;;;;;3.53;1.08;;;;;;;24.78;41.94;100062.25;5043410;28;20401;-51
2022/06/09 11:34:47;;;;;;;6.63;1.55;;;;;;;24.95;41.61;100067.47;5056271;28;20418;-52
2022/06/09 11:40:25;;;;;;;8.63;1.13;;;;;;;24.74;41.94;100073.09;5030832;28;20399;-46
2022/06/09 11:45:37;;;;;;;6.65;1.73;;;;;;;24.60;42.01;100072.19;5046978;28;20402;-54
2022/06/09 11:48:09;;;;;;;7.93;1.90;;;;;;;24.57;42.08;100079.44;4993893;28;20042;-45
2022/06/09 11:50:40;;;;;;;5.93;1.35;;;;;;;24.50;41.96;100073.69;4988939;28;20067;-48
2022/06/09 11:53:07;;;;;;;5.07;1.55;;;;;;;24.39;42.17;100074.34;5018618;28;20483;-47
2022/06/09 11:58:43;;;;;;;4.18;0.73;;;;;;;24.20;41.64;100079.88;4984367;28;20679;-47
2022/06/09 12:10:28;;;;;;;2.88;0.80;;;;;;;23.80;41.35;100081.25;5046210;27;20396;-46
2022/06/09 12:13:17;;;;;;;3.35;1.00;;;;;;;23.67;42.46;100078.47;5013133;28;20042;-49
2022/06/09 12:16:05;;;;;;;;;;;;;;;23.49;43.17;100085.66;5004151;28;20057;-44
2022/06/09 12:18:37;;;;;;;4.57;1.13;;;;;;;23.58;43.11;100079.84;5014355;28;20973;-46
2022/06/09 12:29:02;;;;;;;4.65;1.20;;;;;;;23.72;43.41;100086.13;5022867;27;20441;-44
2022/06/09 12:31:36;;;;;;;8.05;2.17;;;;;;;23.84;44.07;100079.31;5001294;28;20061;-47
2022/06/09 12:34:12;;;;;;;4.97;1.60;;;;;;;23.89;43.54;100087.81;5042755;28;20133;-44
2022/06/09 12:47:24;;;;;;;4.60;2.78;;;;;;;23.62;44.23;100096.38;5007605;28;20120;-48
2022/06/09 12:49:57;;;;;;;5.95;2.70;;;;;;;23.48;44.27;100094.53;4982467;28;20053;-44
2022/06/09 12:55:08;;;;;;;4.68;1.60;;;;;;;23.28;44.96;100093.81;5043528;27;20417;-46
2022/06/09 12:57:44;;;;;;;4.45;1.38;;;;;;;23.26;45.00;100095.69;5023772;28;20133;-45
2022/06/09 13:02:50;;;;;;;4.60;0.90;;;;;;;23.47;46.00;100098.13;5023059;28;20415;-46
2022/06/09 13:05:24;;;;;;;3.60;1.17;;;;;;;23.57;45.85;100094.00;4993059;28;20050;-48
2022/06/09 13:07:55;;;;;;;5.53;1.98;;;;;;;23.58;45.24;100100.97;4985701;28;20518;-43
2022/06/09 13:10:28;;;;;;;5.82;1.98;;;;;;;23.56;45.37;100097.59;4979916;28;20051;-47
2022/06/09 13:13:02;;;;;;;3.70;0.85;;;;;;;23.55;44.90;100098.53;4984528;28;20081;-47
2022/06/09 13:23:27;;;;;;;7.22;2.30;;;;;;;23.27;44.29;100102.66;5046674;28;20399;-48
2022/06/09 13:25:54;;;;;;;7.40;1.98;;;;;;;23.26;44.46;100118.63;5029258;27;20045;-45
2022/06/09 13:28:34;;;;;;;9.57;2.30;;;;;;;23.23;44.92;100117.00;5016271;28;20046;-44
2022/06/09 13:31:06;;;;;;;3.60;1.23;;;;;;;23.24;45.09;100124.00;5017059;28;20053;-45
2022/06/09 13:33:49;;;;;;;4.10;1.33;;;;;;;23.21;45.19;100126.81;5010380;28;20108;-45
2022/06/09 13:38:54;;;;;;;5.38;1.20;;;;;;;23.03;44.99;100134.78;5061515;28;20407;-43
2022/06/09 13:41:38;;;;;;;5.65;0.90;;;;;;;22.80;45.71;100130.75;5006750;28;20084;-48
2022/06/09 13:44:12;;;;;;;8.02;2.83;;;;;;;22.77;45.66;100136.19;4997869;28;20104;-47
2022/06/09 13:46:57;;;;;;;3.78;1.40;;;;;;;22.63;45.65;100134.25;5002211;28;20703;-44
2022/06/09 13:49:38;;;;;;;4.82;1.23;;;;;;;22.59;45.77;100139.69;5003185;28;20137;-42
2022/06/09 13:52:23;;;;;;;6.13;1.40;;;;;;;22.56;46.71;100129.28;5002851;28;20057;-42
2022/06/09 13:54:55;;;;;;;5.03;1.52;;;;;;;22.55;46.49;100130.19;5003987;28;20046;-45
2022/06/09 13:57:27;;;;;;;3.83;1.40;;;;;;;22.57;47.25;100131.03;5002501;28;20545;-43
2022/06/09 13:59:55;;;;;;;4.35;1.52;;;;;;;22.60;47.27;100125.56;5036073;28;20112;-46
2022/06/09 14:02:26;;;;;;;4.65;1.08;;;;;;;22.64;47.28;100130.69;4995310;28;20057;-48
2022/06/09 14:04:54;;;;;;;6.28;1.05;;;;;;;22.67;47.79;100138.44;4998291;28;20487;-44
2022/06/09 14:07:24;;;;;;;4.65;1.00;;;;;;;22.54;48.87;100136.41;4995694;28;20038;-46
2022/06/09 14:09:52;;;;;;;5.65;1.30;;;;;;;22.40;49.22;100141.53;5032533;28;20056;-44
2022/06/09 14:12:19;;;;;;;3.38;1.10;;;;;;;22.27;49.69;100131.63;5035422;28;20096;-48
2022/06/09 14:14:46;;;;;;;5.13;1.20;;;;;;;22.24;49.64;100129.13;5029649;28;20144;-45
2022/06/09 14:17:20;;;;;;;3.63;0.77;;;;;;;22.26;49.81;100129.88;4996453;28;20541;-46
2022/06/09 14:19:47;;;;;;;3.75;0.90;;;;;;;22.28;49.49;100128.03;5033150;28;20805;-49
2022/06/09 14:22:13;;;;;;;5.63;1.25;;;;;;;22.27;49.94;100136.91;5001310;28;20104;-48
2022/06/09 14:24:40;;;;;;;2.65;0.85;;;;;;;22.23;50.33;100137.13;5000867;28;20077;-46
2022/06/09 14:27:07;;;;;;;3.72;1.02;;;;;;;22.14;50.44;100133.16;5001536;28;20429;-43
2022/06/09 14:29:34;;;;;;;5.03;1.20;;;;;;;22.11;51.21;100138.56;4991991;28;20065;-47
2022/06/09 14:32:01;;;;;;;14.57;4.60;;;;;;;22.08;50.92;100135.19;4996172;28;20058;-46
2022/06/09 14:34:27;;;;;;;6.28;2.53;;;;;;;22.07;52.40;100136.13;4994849;28;20049;-42
2022/06/09 14:36:55;;;;;;;6.72;2.65;;;;;;;22.07;52.35;100144.03;4995724;28;20180;-46
2022/06/09 14:39:23;;;;;;;4.00;1.70;;;;;;;22.07;51.57;100133.47;4992594;28;20104;-47